createdAt,value
2017-12-04T00:02:17.817Z,-0.32
2017-12-04T00:04:43.969Z,-0.32
2017-12-04T00:07:10.051Z,-0.30
2017-12-04T00:09:36.108Z,-0.30
2017-12-04T00:12:02.200Z,-0.29
2017-12-04T00:14:28.229Z,-0.30
2017-12-04T00:16:54.283Z,-0.30
2017-12-04T00:19:20.397Z,-0.31
2017-12-04T00:21:46.547Z,-0.30
2017-12-04T00:24:12.643Z,-0.30
2017-12-04T00:26:38.714Z,-0.30
2017-12-04T00:29:04.791Z,-0.28
2017-12-04T00:31:30.815Z,-0.27
2017-12-04T00:33:56.874Z,-0.26
2017-12-04T00:36:22.885Z,-0.26
2017-12-04T00:38:48.951Z,-0.27
2017-12-04T00:41:14.987Z,-0.28
2017-12-04T00:43:41.289Z,-0.30
2017-12-04T00:46:07.357Z,-0.31
2017-12-04T00:48:33.354Z,-0.32
2017-12-04T00:50:59.426Z,-0.31
2017-12-04T00:53:25.468Z,-0.32
2017-12-04T00:55:51.488Z,-0.32
2017-12-04T00:58:17.582Z,-0.32
2017-12-04T01:00:43.734Z,-0.32
2017-12-04T01:03:09.924Z,-0.31
2017-12-04T01:05:35.984Z,-0.32
2017-12-04T01:08:01.990Z,-0.32
2017-12-04T01:10:28.058Z,-0.30
2017-12-04T01:12:54.133Z,-0.30
2017-12-04T01:15:20.270Z,-0.30
2017-12-04T01:17:46.257Z,-0.31
2017-12-04T01:20:12.281Z,-0.29
2017-12-04T01:22:38.466Z,-0.29
2017-12-04T01:25:05.429Z,-0.29
2017-12-04T01:27:31.530Z,-0.28
2017-12-04T01:29:57.541Z,-0.27
2017-12-04T01:32:23.534Z,-0.26
2017-12-04T01:34:49.700Z,-0.26
2017-12-04T01:37:15.689Z,-0.27
2017-12-04T01:39:41.941Z,-0.26
2017-12-04T01:42:07.932Z,-0.26
2017-12-04T01:44:33.952Z,-0.25
2017-12-04T01:47:00.063Z,-0.25
2017-12-04T01:49:26.076Z,-0.26
2017-12-04T01:51:52.169Z,-0.25
2017-12-04T01:54:18.301Z,-0.26
2017-12-04T01:56:44.316Z,-0.25
2017-12-04T01:59:10.460Z,-0.24
2017-12-04T02:01:36.481Z,-0.24
2017-12-04T02:04:02.589Z,-0.24
2017-12-04T02:06:28.707Z,-0.24
2017-12-04T02:08:54.821Z,-0.24
2017-12-04T02:11:20.834Z,-0.24
2017-12-04T02:13:46.887Z,-0.23
2017-12-04T02:16:12.976Z,-0.24
2017-12-04T02:18:39.105Z,-0.24
2017-12-04T02:21:05.163Z,-0.26
2017-12-04T02:23:31.224Z,-0.26
2017-12-04T02:25:57.573Z,-0.27
2017-12-04T02:28:23.606Z,-0.28
2017-12-04T02:30:49.664Z,-0.28
2017-12-04T02:33:15.950Z,-0.27
2017-12-04T02:35:42.003Z,-0.27
2017-12-04T02:38:08.084Z,-0.25
2017-12-04T02:40:34.273Z,-0.25
2017-12-04T02:43:00.413Z,-0.26
2017-12-04T02:45:26.821Z,-0.25
2017-12-04T02:47:52.938Z,-0.25
2017-12-04T02:50:19.316Z,-0.24
2017-12-04T02:52:45.467Z,-0.24
2017-12-04T02:55:11.635Z,-0.23
2017-12-04T02:57:37.799Z,-0.23
2017-12-04T03:00:03.811Z,-0.23
2017-12-04T03:02:29.883Z,-0.23
2017-12-04T03:04:55.936Z,-0.22
2017-12-04T03:07:21.963Z,-0.22
2017-12-04T03:09:48.634Z,-0.20
2017-12-04T03:12:14.669Z,-0.19
2017-12-04T03:14:40.711Z,-0.18
2017-12-04T03:17:06.749Z,-0.20
2017-12-04T03:19:32.794Z,-0.21
2017-12-04T03:21:58.921Z,-0.20
2017-12-04T03:24:24.975Z,-0.19
2017-12-04T03:26:51.017Z,-0.18
2017-12-04T03:29:17.096Z,-0.17
2017-12-04T03:31:43.200Z,-0.17
2017-12-04T03:34:09.248Z,-0.15
2017-12-04T03:36:35.314Z,-0.15
2017-12-04T03:39:01.531Z,-0.13
2017-12-04T03:41:27.626Z,-0.12
2017-12-04T03:43:53.724Z,-0.11
2017-12-04T03:46:19.807Z,-0.10
2017-12-04T03:48:45.923Z,-0.09
2017-12-04T03:51:11.988Z,-0.08
2017-12-04T03:53:38.072Z,-0.07
2017-12-04T03:56:04.120Z,-0.06
2017-12-04T03:58:30.123Z,-0.06
2017-12-04T04:00:56.148Z,-0.07
2017-12-04T04:03:22.323Z,-0.07
2017-12-04T04:05:48.370Z,-0.08
2017-12-04T04:08:14.355Z,-0.07
2017-12-04T04:10:40.334Z,-0.05
2017-12-04T04:13:06.362Z,-0.06
2017-12-04T04:15:32.398Z,-0.05
2017-12-04T04:17:59.086Z,-0.04
2017-12-04T04:20:29.132Z,-0.04
2017-12-04T04:22:55.209Z,-0.02
2017-12-04T04:25:21.263Z,-0.02
2017-12-04T04:27:47.285Z,0.01
2017-12-04T04:30:13.319Z,0.01
2017-12-04T04:32:39.339Z,0.02
2017-12-04T04:35:05.405Z,0.04
2017-12-04T04:37:31.477Z,0.04
2017-12-04T04:39:58.066Z,0.04
2017-12-04T04:42:24.151Z,0.06
2017-12-04T04:44:50.250Z,0.06
2017-12-04T04:47:16.326Z,0.04
2017-12-04T04:49:42.316Z,0.05
2017-12-04T04:52:08.418Z,0.05
2017-12-04T04:54:34.577Z,0.05
2017-12-04T04:57:00.623Z,0.06
2017-12-04T04:59:26.822Z,0.08
2017-12-04T05:01:52.826Z,0.08
2017-12-04T05:04:18.851Z,0.09
2017-12-04T05:06:45.006Z,0.10
2017-12-04T05:09:11.104Z,0.11
2017-12-04T05:11:37.100Z,0.12
2017-12-04T05:14:03.178Z,0.14
2017-12-04T05:16:29.279Z,0.14
2017-12-04T05:18:55.432Z,0.15
2017-12-04T05:21:21.491Z,0.15
2017-12-04T05:23:47.567Z,0.15
2017-12-04T05:26:13.627Z,0.14
2017-12-04T05:28:39.751Z,0.13
2017-12-04T05:31:05.850Z,0.13
2017-12-04T05:33:31.941Z,0.14
2017-12-04T05:35:58.033Z,0.15
2017-12-04T05:38:24.050Z,0.15
2017-12-04T05:40:50.597Z,0.15
2017-12-04T05:43:16.603Z,0.16
2017-12-04T05:45:42.675Z,0.17
2017-12-04T05:48:08.807Z,0.18
2017-12-04T05:50:34.823Z,0.19
2017-12-04T05:53:00.881Z,0.18
2017-12-04T05:55:27.008Z,0.19
2017-12-04T05:57:53.008Z,0.19
2017-12-04T06:00:20.023Z,0.18
2017-12-04T06:02:46.404Z,0.20
2017-12-04T06:05:12.561Z,0.20
2017-12-04T06:07:38.579Z,0.20
2017-12-04T06:10:04.663Z,0.19
2017-12-04T06:12:30.748Z,0.19
2017-12-04T06:14:56.779Z,0.18
2017-12-04T06:17:22.767Z,0.19
2017-12-04T06:19:48.861Z,0.18
2017-12-04T06:22:15.046Z,0.19
2017-12-04T06:24:41.057Z,0.20
2017-12-04T06:27:07.072Z,0.23
2017-12-04T06:29:33.236Z,0.24
2017-12-04T06:31:59.354Z,0.24
2017-12-04T06:34:25.492Z,0.23
2017-12-04T06:36:51.498Z,0.21
2017-12-04T06:39:17.532Z,0.22
2017-12-04T06:41:43.607Z,0.23
2017-12-04T06:44:09.687Z,0.23
2017-12-04T06:46:35.744Z,0.25
2017-12-04T06:49:01.887Z,0.24
2017-12-04T06:51:28.017Z,0.26
2017-12-04T06:53:54.292Z,0.27
2017-12-04T06:56:20.432Z,0.28
2017-12-04T06:58:46.809Z,0.30
2017-12-04T07:01:13.296Z,0.31
2017-12-04T07:03:39.396Z,0.32
2017-12-04T07:06:05.634Z,0.35
2017-12-04T07:08:31.862Z,0.39
2017-12-04T07:10:58.008Z,0.40
2017-12-04T07:13:24.225Z,0.43
2017-12-04T07:15:50.313Z,0.44
2017-12-04T07:18:16.423Z,0.46
2017-12-04T07:20:42.585Z,0.49
2017-12-04T07:23:08.749Z,0.50
2017-12-04T07:25:34.855Z,0.52
2017-12-04T07:28:01.025Z,0.53
2017-12-04T07:30:27.136Z,0.55
2017-12-04T07:32:53.461Z,0.59
2017-12-04T07:35:19.866Z,0.61
2017-12-04T07:37:46.378Z,0.64
2017-12-04T07:40:12.450Z,0.66
2017-12-04T07:42:38.548Z,0.66
2017-12-04T07:45:04.613Z,0.68
2017-12-04T07:47:30.771Z,0.68
2017-12-04T07:49:56.836Z,0.71
2017-12-04T07:52:23.184Z,0.73
2017-12-04T07:54:49.250Z,0.77
2017-12-04T07:57:15.234Z,0.81
2017-12-04T07:59:41.320Z,0.85
2017-12-04T08:02:07.430Z,0.92
2017-12-04T08:04:33.606Z,0.97
2017-12-04T08:06:59.689Z,1.02
2017-12-04T08:09:25.853Z,1.04
2017-12-04T08:11:51.898Z,1.04
2017-12-04T08:14:17.939Z,1.09
2017-12-04T08:16:44.028Z,1.12
2017-12-04T08:19:10.472Z,1.14
2017-12-04T08:21:36.993Z,1.14
2017-12-04T08:24:03.294Z,1.18
2017-12-04T08:26:29.814Z,1.19
2017-12-04T08:28:56.280Z,1.23
2017-12-04T08:31:22.483Z,1.32
2017-12-04T08:33:49.015Z,1.36
2017-12-04T08:36:15.146Z,1.38
2017-12-04T08:38:41.353Z,1.40
2017-12-04T08:41:07.866Z,1.47
2017-12-04T08:43:34.308Z,1.51
2017-12-04T08:46:05.426Z,1.53
2017-12-04T08:48:31.925Z,1.57
2017-12-04T08:50:58.274Z,1.60
2017-12-04T08:53:24.588Z,1.59
2017-12-04T08:55:50.818Z,1.58
2017-12-04T08:58:17.333Z,1.60
2017-12-04T09:00:43.777Z,1.62
2017-12-04T09:03:09.949Z,1.62
2017-12-04T09:05:36.430Z,1.61
2017-12-04T09:08:06.637Z,1.65
2017-12-04T09:10:32.975Z,1.67
2017-12-04T09:12:59.385Z,1.72
2017-12-04T09:15:25.369Z,1.74
2017-12-04T09:17:51.577Z,1.76
2017-12-04T09:20:17.689Z,1.79
2017-12-04T09:22:43.858Z,1.83
2017-12-04T09:25:09.955Z,1.86
2017-12-04T09:27:36.188Z,1.92
2017-12-04T09:30:02.261Z,1.99
2017-12-04T09:32:28.400Z,2.01
2017-12-04T09:34:54.508Z,2.04
2017-12-04T09:37:20.646Z,2.08
2017-12-04T09:39:46.759Z,2.10
2017-12-04T09:42:12.786Z,2.09
2017-12-04T09:44:38.888Z,2.10
2017-12-04T09:47:05.072Z,2.12
2017-12-04T09:49:31.172Z,2.15
2017-12-04T09:51:57.319Z,2.14
2017-12-04T09:54:23.440Z,2.18
2017-12-04T09:56:49.484Z,2.21
2017-12-04T09:59:15.595Z,2.27
2017-12-04T10:01:41.722Z,2.36
2017-12-04T10:04:07.772Z,2.48
2017-12-04T10:06:33.810Z,2.57
2017-12-04T10:08:59.919Z,2.62
2017-12-04T10:11:26.066Z,2.65
2017-12-04T10:13:52.317Z,2.66
2017-12-04T10:16:18.463Z,2.67
2017-12-04T10:18:44.507Z,2.63
2017-12-04T10:21:10.572Z,2.67
2017-12-04T10:23:36.666Z,2.76
2017-12-04T10:26:02.778Z,2.86
2017-12-04T10:28:28.924Z,2.98
2017-12-04T10:30:54.962Z,3.09
2017-12-04T10:33:21.604Z,3.18
2017-12-04T10:35:47.627Z,3.22
2017-12-04T10:38:13.716Z,3.19
2017-12-04T10:40:39.833Z,3.18
2017-12-04T10:43:05.928Z,3.17
2017-12-04T10:45:32.198Z,3.23
2017-12-04T10:47:58.322Z,3.34
2017-12-04T10:50:24.394Z,3.42
2017-12-04T10:52:50.465Z,3.53
2017-12-04T10:55:16.674Z,3.64
2017-12-04T10:57:44.209Z,3.72
2017-12-04T11:00:10.481Z,3.76
2017-12-04T11:02:36.621Z,3.77
2017-12-04T11:05:02.904Z,3.77
2017-12-04T11:07:28.997Z,3.74
2017-12-04T11:09:55.105Z,3.75
2017-12-04T11:12:21.405Z,3.74
2017-12-04T11:14:47.629Z,3.69
2017-12-04T11:17:13.991Z,3.70
2017-12-04T11:19:40.142Z,3.75
2017-12-04T11:22:06.291Z,3.82
2017-12-04T11:24:33.142Z,3.82
2017-12-04T11:26:59.438Z,3.87
2017-12-04T11:29:25.621Z,3.86
2017-12-04T11:31:51.880Z,3.80
2017-12-04T11:34:18.116Z,3.77
2017-12-04T11:36:44.317Z,3.72
2017-12-04T11:39:11.573Z,3.70
2017-12-04T11:41:37.755Z,3.72
2017-12-04T11:44:03.787Z,3.76
2017-12-04T11:46:30.122Z,3.84
2017-12-04T11:48:56.317Z,3.86
2017-12-04T11:51:22.417Z,3.88
2017-12-04T11:53:48.592Z,3.90
2017-12-04T11:56:14.680Z,3.97
2017-12-04T11:58:40.747Z,4.07
2017-12-04T12:01:06.800Z,4.21
2017-12-04T12:03:32.816Z,4.35
2017-12-04T12:05:58.902Z,4.41
2017-12-04T12:08:24.967Z,4.46
2017-12-04T12:10:51.165Z,4.41
2017-12-04T12:13:17.255Z,4.38
2017-12-04T12:15:43.376Z,4.41
2017-12-04T12:18:09.461Z,4.42
2017-12-04T12:20:35.584Z,4.39
2017-12-04T12:23:01.591Z,4.27
2017-12-04T12:25:28.257Z,4.11
2017-12-04T12:27:54.270Z,3.98
2017-12-04T12:30:20.310Z,3.93
2017-12-04T12:32:46.362Z,3.87
2017-12-04T12:35:12.478Z,3.71
2017-12-04T12:37:38.589Z,3.56
2017-12-04T12:40:04.644Z,3.44
2017-12-04T12:42:30.852Z,3.33
2017-12-04T12:44:56.940Z,3.28
2017-12-04T12:47:23.091Z,3.26
2017-12-04T12:49:49.270Z,3.24
2017-12-04T12:52:15.275Z,3.20
2017-12-04T12:54:41.491Z,3.19
2017-12-04T12:57:07.508Z,3.17
2017-12-04T12:59:33.616Z,3.18
2017-12-04T13:01:59.766Z,3.17
2017-12-04T13:04:25.859Z,3.10
2017-12-04T13:06:51.911Z,3.03
2017-12-04T13:09:17.944Z,3.01
2017-12-04T13:11:44.095Z,2.98
2017-12-04T13:14:10.251Z,2.97
2017-12-04T13:16:36.312Z,2.96
2017-12-04T13:19:02.522Z,2.96
2017-12-04T13:21:28.697Z,2.96
2017-12-04T13:23:55.715Z,2.94
2017-12-04T13:26:21.797Z,2.92
2017-12-04T13:28:47.813Z,2.92
2017-12-04T13:31:13.997Z,2.92
2017-12-04T13:33:52.091Z,2.91
2017-12-04T13:36:31.037Z,2.90
2017-12-04T13:38:57.182Z,2.89
2017-12-04T13:41:23.327Z,2.89
2017-12-04T13:43:50.101Z,2.91
2017-12-04T13:46:16.141Z,2.91
2017-12-04T13:48:42.259Z,2.89
2017-12-04T13:51:08.442Z,2.89
2017-12-04T13:53:34.518Z,2.89
2017-12-04T13:56:00.836Z,2.90
2017-12-04T13:58:26.902Z,2.88
2017-12-04T14:00:52.970Z,2.88
2017-12-04T14:03:19.082Z,2.88
2017-12-04T14:05:45.136Z,2.87
2017-12-04T14:08:11.233Z,2.85
2017-12-04T14:10:37.267Z,2.83
2017-12-04T14:13:03.280Z,2.81
2017-12-04T14:15:29.346Z,2.78
2017-12-04T14:17:55.493Z,2.76
2017-12-04T14:20:21.542Z,2.73
2017-12-04T14:22:47.550Z,2.72
2017-12-04T14:25:13.700Z,2.71
2017-12-04T14:27:39.839Z,2.72
2017-12-04T14:30:05.946Z,2.73
2017-12-04T14:32:32.127Z,2.74
2017-12-04T14:34:58.237Z,2.74
2017-12-04T14:37:24.265Z,2.73
2017-12-04T14:39:50.504Z,2.70
2017-12-04T14:42:17.603Z,2.66
2017-12-04T14:44:43.733Z,2.61
2017-12-04T14:47:09.819Z,2.59
2017-12-04T14:49:36.028Z,2.57
2017-12-04T14:52:02.254Z,2.54
2017-12-04T14:54:28.364Z,2.50
2017-12-04T14:56:54.597Z,2.46
2017-12-04T14:59:20.672Z,2.44
2017-12-04T15:01:49.989Z,2.42
2017-12-04T15:04:16.148Z,2.38
2017-12-04T15:06:42.160Z,2.33
2017-12-04T15:09:08.606Z,2.30
2017-12-04T15:11:34.678Z,2.26
2017-12-04T15:14:00.799Z,2.24
2017-12-04T15:16:27.051Z,2.22
2017-12-04T15:18:53.157Z,2.21
2017-12-04T15:21:25.118Z,2.21
2017-12-04T15:23:53.322Z,2.20
2017-12-04T15:26:19.995Z,2.18
2017-12-04T15:28:46.390Z,2.17
2017-12-04T15:31:12.666Z,2.16
2017-12-04T15:33:39.085Z,2.15
2017-12-04T15:36:05.632Z,2.14
2017-12-04T15:38:33.042Z,2.13
2017-12-04T15:40:59.426Z,2.12
2017-12-04T15:43:26.168Z,2.12
2017-12-04T15:45:52.511Z,2.14
2017-12-04T15:48:18.930Z,2.14
2017-12-04T15:50:45.331Z,2.12
2017-12-04T15:53:11.881Z,2.12
2017-12-04T15:55:39.089Z,2.10
2017-12-04T15:58:05.399Z,2.09
2017-12-04T16:00:31.835Z,2.08
2017-12-04T16:02:58.569Z,2.07
2017-12-04T16:05:25.103Z,2.05
2017-12-04T16:07:51.653Z,2.02
2017-12-04T16:10:18.162Z,2.01
2017-12-04T16:12:44.615Z,1.99
2017-12-04T16:15:11.671Z,1.98
2017-12-04T16:17:37.930Z,1.96
2017-12-04T16:20:04.421Z,1.96
2017-12-04T16:22:30.691Z,1.95
2017-12-04T16:24:57.897Z,1.95
2017-12-04T16:27:25.096Z,1.93
2017-12-04T16:29:51.251Z,1.95
2017-12-04T16:35:10.150Z,1.94
2017-12-04T16:37:36.465Z,1.92
2017-12-04T16:40:02.578Z,1.92
2017-12-04T16:45:21.253Z,1.89
2017-12-04T16:47:47.627Z,1.90
2017-12-04T16:50:13.986Z,1.90
2017-12-04T16:52:40.409Z,1.91
2017-12-04T16:55:06.688Z,1.91
2017-12-04T16:57:32.793Z,1.93
2017-12-04T16:59:59.439Z,1.94
2017-12-04T17:02:25.600Z,1.95
2017-12-04T17:07:34.468Z,1.98
2017-12-04T17:10:00.625Z,1.99
2017-12-04T17:12:27.054Z,2.00
2017-12-04T17:14:53.330Z,2.01
2017-12-04T17:17:22.226Z,2.01
2017-12-04T17:19:48.309Z,2.01
2017-12-04T17:22:14.644Z,2.01
2017-12-04T17:24:40.911Z,2.00
2017-12-04T17:27:07.049Z,2.00
2017-12-04T17:29:33.348Z,1.99
2017-12-04T17:31:59.633Z,1.99
2017-12-04T17:34:33.602Z,2.00
2017-12-04T17:37:00.657Z,1.98
2017-12-04T17:39:27.765Z,1.97
2017-12-04T17:41:56.335Z,1.97
2017-12-04T17:44:23.078Z,1.97
2017-12-04T17:46:49.701Z,1.98
2017-12-04T17:49:16.479Z,1.97
2017-12-04T17:51:42.955Z,1.98
2017-12-04T17:54:09.305Z,1.98
2017-12-04T17:56:35.755Z,1.98
2017-12-04T17:59:02.093Z,1.97
2017-12-04T18:01:30.669Z,1.96
2017-12-04T18:03:57.081Z,1.94
2017-12-04T18:06:24.730Z,1.93
2017-12-04T18:08:51.199Z,1.92
2017-12-04T18:11:18.726Z,1.92
2017-12-04T18:13:45.289Z,1.92
2017-12-04T18:16:12.679Z,1.91
2017-12-04T18:18:40.579Z,1.91
2017-12-04T18:21:07.048Z,1.91
2017-12-04T18:23:33.671Z,1.91
2017-12-04T18:26:00.265Z,1.89
2017-12-04T18:28:31.615Z,1.88
2017-12-04T18:31:00.399Z,1.87
2017-12-04T18:33:27.244Z,1.85
2017-12-04T18:35:54.160Z,1.84
2017-12-04T18:38:21.375Z,1.84
2017-12-04T18:40:47.911Z,1.85
2017-12-04T18:43:14.741Z,1.87
2017-12-04T18:45:41.320Z,1.87
2017-12-04T18:48:07.545Z,1.87
2017-12-04T18:50:33.730Z,1.86
2017-12-04T18:52:59.812Z,1.86
2017-12-04T18:55:26.220Z,1.87
2017-12-04T18:57:52.411Z,1.87
2017-12-04T19:00:19.332Z,1.87
2017-12-04T19:02:45.618Z,1.86
2017-12-04T19:05:11.744Z,1.85
2017-12-04T19:07:37.910Z,1.83
2017-12-04T19:10:05.052Z,1.84
2017-12-04T19:12:31.199Z,1.86
2017-12-04T19:14:57.948Z,1.87
2017-12-04T19:17:24.072Z,1.88
2017-12-04T19:19:50.211Z,1.87
2017-12-04T19:22:17.133Z,1.87
2017-12-04T19:24:43.203Z,1.86
2017-12-04T19:27:09.689Z,1.83
2017-12-04T19:29:35.961Z,1.83
2017-12-04T19:32:02.433Z,1.83
2017-12-04T19:34:28.590Z,1.82
2017-12-04T19:36:54.723Z,1.81
2017-12-04T19:39:21.201Z,1.82
2017-12-04T19:41:47.589Z,1.82
2017-12-04T19:44:14.009Z,1.83
2017-12-04T19:46:40.427Z,1.83
2017-12-04T19:49:06.766Z,1.82
2017-12-04T19:51:33.819Z,1.81
2017-12-04T19:54:00.086Z,1.80
2017-12-04T19:56:26.273Z,1.78
2017-12-04T19:58:52.425Z,1.76
2017-12-04T20:01:18.532Z,1.73
2017-12-04T20:03:44.625Z,1.70
2017-12-04T20:06:10.712Z,1.69
2017-12-04T20:08:36.876Z,1.69
2017-12-04T20:11:02.985Z,1.66
2017-12-04T20:13:29.140Z,1.64
2017-12-04T20:15:55.310Z,1.64
2017-12-04T20:18:21.542Z,1.65
2017-12-04T20:20:47.707Z,1.65
2017-12-04T20:23:14.082Z,1.65
2017-12-04T20:25:40.334Z,1.65
2017-12-04T20:28:06.476Z,1.64
2017-12-04T20:30:32.779Z,1.63
2017-12-04T20:32:59.019Z,1.62
2017-12-04T20:35:25.216Z,1.59
2017-12-04T20:37:51.512Z,1.57
2017-12-04T20:40:17.947Z,1.57
2017-12-04T20:42:44.212Z,1.59
2017-12-04T20:45:10.430Z,1.62
2017-12-04T20:47:36.621Z,1.65
2017-12-04T20:50:02.806Z,1.66
2017-12-04T20:52:28.932Z,1.68
2017-12-04T20:54:55.236Z,1.69
2017-12-04T20:57:21.309Z,1.69
2017-12-04T20:59:47.427Z,1.68
2017-12-04T21:02:13.556Z,1.67
2017-12-04T21:04:39.739Z,1.68
2017-12-04T21:07:05.858Z,1.69
2017-12-04T21:09:44.097Z,1.69
2017-12-04T21:12:10.244Z,1.69
2017-12-04T21:17:43.455Z,1.65
2017-12-04T21:20:09.534Z,1.63
2017-12-04T21:22:35.762Z,1.60
2017-12-04T21:25:01.967Z,1.59
2017-12-04T21:27:28.009Z,1.56
2017-12-04T21:29:54.254Z,1.54
2017-12-04T21:32:20.352Z,1.52
2017-12-04T21:34:46.595Z,1.51
2017-12-04T21:37:12.660Z,1.50
2017-12-04T21:39:38.860Z,1.50
2017-12-04T21:42:05.691Z,1.50
2017-12-04T21:44:31.998Z,1.49
2017-12-04T21:46:58.071Z,1.47
2017-12-04T21:49:24.391Z,1.47
2017-12-04T21:51:50.441Z,1.47
2017-12-04T21:54:16.542Z,1.47
2017-12-04T21:56:42.684Z,1.46
2017-12-04T21:59:08.839Z,1.47
2017-12-04T22:01:35.000Z,1.47
2017-12-04T22:04:01.016Z,1.45
2017-12-04T22:06:27.240Z,1.44
2017-12-04T22:08:55.404Z,1.43
2017-12-04T22:11:21.800Z,1.43
2017-12-04T22:13:47.954Z,1.43
2017-12-04T22:16:14.084Z,1.45
2017-12-04T22:18:40.244Z,1.45
2017-12-04T22:21:06.469Z,1.46
2017-12-04T22:23:32.769Z,1.46
2017-12-04T22:25:58.943Z,1.48
2017-12-04T22:28:25.048Z,1.48
2017-12-04T22:30:51.357Z,1.48
2017-12-04T22:33:17.425Z,1.50
2017-12-04T22:35:43.536Z,1.49
2017-12-04T22:38:09.653Z,1.51
2017-12-04T22:40:36.042Z,1.53
2017-12-04T22:43:02.158Z,1.53
2017-12-04T22:45:28.205Z,1.52
2017-12-04T22:47:54.278Z,1.51
2017-12-04T22:50:20.392Z,1.50
2017-12-04T22:52:46.485Z,1.50
2017-12-04T22:55:12.613Z,1.51
2017-12-04T22:57:38.672Z,1.54
2017-12-04T23:00:04.756Z,1.58
2017-12-04T23:02:30.920Z,1.61
2017-12-04T23:04:57.190Z,1.62
2017-12-04T23:07:23.348Z,1.65
2017-12-04T23:09:49.464Z,1.67
2017-12-04T23:12:15.610Z,1.70
2017-12-04T23:14:41.711Z,1.72
2017-12-04T23:17:07.969Z,1.73
2017-12-04T23:19:34.079Z,1.73
2017-12-04T23:22:00.261Z,1.74
2017-12-04T23:24:26.472Z,1.77
2017-12-04T23:26:52.539Z,1.78
2017-12-04T23:29:18.660Z,1.78
2017-12-04T23:31:44.695Z,1.78
2017-12-04T23:34:10.842Z,1.78
2017-12-04T23:36:36.907Z,1.77
2017-12-04T23:39:03.054Z,1.78
2017-12-04T23:41:29.219Z,1.80
2017-12-04T23:43:55.721Z,1.82
2017-12-04T23:46:21.728Z,1.83
2017-12-04T23:48:47.772Z,1.84
2017-12-04T23:51:13.961Z,1.85
2017-12-04T23:53:39.972Z,1.86
2017-12-04T23:56:06.122Z,1.87
2017-12-04T23:58:32.134Z,1.88
